sensor_id;sensor_type;location;lat;lon;timestamp;P1;durP1;ratioP1;P2;durP2;ratioP2
57842;SDS011;43673;51.058;3.734;2023-11-21T00:00:29;30.67;;;18.30;;
57842;SDS011;43673;51.058;3.734;2023-11-21T00:02:55;34.33;;;18.25;;
57842;SDS011;43673;51.058;3.734;2023-11-21T00:05:20;31.33;;;18.10;;
57842;SDS011;43673;51.058;3.734;2023-11-21T00:07:48;36.65;;;19.20;;
57842;SDS011;43673;51.058;3.734;2023-11-21T00:10:14;32.40;;;19.25;;
57842;SDS011;43673;51.058;3.734;2023-11-21T00:12:41;29.90;;;18.42;;
57842;SDS011;43673;51.058;3.734;2023-11-21T00:15:07;31.77;;;17.58;;
57842;SDS011;43673;51.058;3.734;2023-11-21T00:17:36;32.83;;;18.20;;
57842;SDS011;43673;51.058;3.734;2023-11-21T00:20:03;33.88;;;17.70;;
57842;SDS011;43673;51.058;3.734;2023-11-21T00:22:31;29.50;;;17.33;;
57842;SDS011;43673;51.058;3.734;2023-11-21T00:24:58;28.00;;;17.15;;
57842;SDS011;43673;51.058;3.734;2023-11-21T00:27:24;34.20;;;17.25;;
57842;SDS011;43673;51.058;3.734;2023-11-21T00:29:52;33.00;;;17.08;;
57842;SDS011;43673;51.058;3.734;2023-11-21T00:32:18;23.80;;;15.70;;
57842;SDS011;43673;51.058;3.734;2023-11-21T00:34:44;24.35;;;16.67;;
57842;SDS011;43673;51.058;3.734;2023-11-21T00:37:10;35.17;;;16.30;;
57842;SDS011;43673;51.058;3.734;2023-11-21T00:39:35;27.77;;;17.45;;
57842;SDS011;43673;51.058;3.734;2023-11-21T00:42:01;28.48;;;16.48;;
57842;SDS011;43673;51.058;3.734;2023-11-21T00:44:27;29.10;;;16.05;;
57842;SDS011;43673;51.058;3.734;2023-11-21T00:46:56;28.35;;;15.25;;
57842;SDS011;43673;51.058;3.734;2023-11-21T00:49:27;21.95;;;14.70;;
57842;SDS011;43673;51.058;3.734;2023-11-21T00:51:57;25.55;;;16.15;;
57842;SDS011;43673;51.058;3.734;2023-11-21T00:54:23;33.70;;;16.63;;
57842;SDS011;43673;51.058;3.734;2023-11-21T00:56:48;35.47;;;17.48;;
57842;SDS011;43673;51.058;3.734;2023-11-21T00:59:14;32.53;;;17.08;;
57842;SDS011;43673;51.058;3.734;2023-11-21T01:01:40;22.73;;;13.95;;
57842;SDS011;43673;51.058;3.734;2023-11-21T01:04:06;27.25;;;15.43;;
57842;SDS011;43673;51.058;3.734;2023-11-21T01:06:35;34.92;;;16.38;;
57842;SDS011;43673;51.058;3.734;2023-11-21T01:09:00;29.15;;;15.63;;
57842;SDS011;43673;51.058;3.734;2023-11-21T01:11:29;24.40;;;14.50;;
57842;SDS011;43673;51.058;3.734;2023-11-21T01:13:57;28.23;;;15.43;;
57842;SDS011;43673;51.058;3.734;2023-11-21T01:16:24;27.83;;;14.93;;
57842;SDS011;43673;51.058;3.734;2023-11-21T01:18:50;29.10;;;14.25;;
57842;SDS011;43673;51.058;3.734;2023-11-21T01:21:16;23.75;;;12.90;;
57842;SDS011;43673;51.058;3.734;2023-11-21T01:23:42;31.90;;;14.40;;
57842;SDS011;43673;51.058;3.734;2023-11-21T01:26:08;25.50;;;13.40;;
57842;SDS011;43673;51.058;3.734;2023-11-21T01:28:34;20.80;;;13.60;;
57842;SDS011;43673;51.058;3.734;2023-11-21T01:30:59;25.80;;;13.05;;
57842;SDS011;43673;51.058;3.734;2023-11-21T01:33:25;21.98;;;13.13;;
57842;SDS011;43673;51.058;3.734;2023-11-21T01:35:51;21.17;;;13.43;;
57842;SDS011;43673;51.058;3.734;2023-11-21T01:38:20;22.42;;;12.82;;
57842;SDS011;43673;51.058;3.734;2023-11-21T01:40:46;23.92;;;12.10;;
57842;SDS011;43673;51.058;3.734;2023-11-21T01:43:11;23.80;;;13.27;;
57842;SDS011;43673;51.058;3.734;2023-11-21T01:45:37;27.90;;;13.82;;
57842;SDS011;43673;51.058;3.734;2023-11-21T01:48:07;23.40;;;12.75;;
57842;SDS011;43673;51.058;3.734;2023-11-21T01:50:33;26.67;;;13.68;;
57842;SDS011;43673;51.058;3.734;2023-11-21T01:52:59;27.00;;;14.43;;
57842;SDS011;43673;51.058;3.734;2023-11-21T01:55:26;22.33;;;12.70;;
57842;SDS011;43673;51.058;3.734;2023-11-21T01:57:53;29.23;;;13.30;;
57842;SDS011;43673;51.058;3.734;2023-11-21T02:00:19;26.88;;;13.00;;
57842;SDS011;43673;51.058;3.734;2023-11-21T02:02:46;27.17;;;14.07;;
57842;SDS011;43673;51.058;3.734;2023-11-21T02:05:13;24.58;;;14.70;;
57842;SDS011;43673;51.058;3.734;2023-11-21T02:07:43;31.73;;;15.73;;
57842;SDS011;43673;51.058;3.734;2023-11-21T02:10:10;30.73;;;17.40;;
57842;SDS011;43673;51.058;3.734;2023-11-21T02:12:56;29.45;;;16.65;;
57842;SDS011;43673;51.058;3.734;2023-11-21T02:15:23;22.17;;;15.02;;
57842;SDS011;43673;51.058;3.734;2023-11-21T02:17:51;27.88;;;15.73;;
57842;SDS011;43673;51.058;3.734;2023-11-21T02:20:18;28.67;;;16.73;;
57842;SDS011;43673;51.058;3.734;2023-11-21T02:22:49;30.65;;;17.67;;
57842;SDS011;43673;51.058;3.734;2023-11-21T02:25:23;28.08;;;17.45;;
57842;SDS011;43673;51.058;3.734;2023-11-21T02:27:56;31.00;;;17.10;;
57842;SDS011;43673;51.058;3.734;2023-11-21T02:30:23;35.83;;;19.92;;
57842;SDS011;43673;51.058;3.734;2023-11-21T02:33:09;34.95;;;16.80;;
57842;SDS011;43673;51.058;3.734;2023-11-21T02:35:35;29.27;;;18.05;;
57842;SDS011;43673;51.058;3.734;2023-11-21T02:38:00;28.50;;;16.83;;
57842;SDS011;43673;51.058;3.734;2023-11-21T02:40:26;30.88;;;18.05;;
57842;SDS011;43673;51.058;3.734;2023-11-21T02:42:52;28.20;;;17.63;;
57842;SDS011;43673;51.058;3.734;2023-11-21T02:45:18;32.47;;;17.23;;
57842;SDS011;43673;51.058;3.734;2023-11-21T02:47:46;27.58;;;15.25;;
57842;SDS011;43673;51.058;3.734;2023-11-21T02:50:12;32.05;;;19.50;;
57842;SDS011;43673;51.058;3.734;2023-11-21T02:52:38;31.58;;;17.00;;
57842;SDS011;43673;51.058;3.734;2023-11-21T02:55:05;42.83;;;23.52;;
57842;SDS011;43673;51.058;3.734;2023-11-21T02:57:32;46.88;;;24.23;;
57842;SDS011;43673;51.058;3.734;2023-11-21T02:59:58;59.25;;;28.50;;
57842;SDS011;43673;51.058;3.734;2023-11-21T03:02:25;39.88;;;21.13;;
57842;SDS011;43673;51.058;3.734;2023-11-21T03:04:51;35.83;;;15.73;;
57842;SDS011;43673;51.058;3.734;2023-11-21T03:07:17;30.67;;;14.88;;
57842;SDS011;43673;51.058;3.734;2023-11-21T03:09:44;25.90;;;13.32;;
57842;SDS011;43673;51.058;3.734;2023-11-21T03:12:13;19.98;;;12.43;;
57842;SDS011;43673;51.058;3.734;2023-11-21T03:14:39;25.27;;;14.15;;
57842;SDS011;43673;51.058;3.734;2023-11-21T03:17:05;24.80;;;15.60;;
57842;SDS011;43673;51.058;3.734;2023-11-21T03:19:31;21.58;;;12.98;;
57842;SDS011;43673;51.058;3.734;2023-11-21T03:21:57;25.88;;;13.38;;
57842;SDS011;43673;51.058;3.734;2023-11-21T03:24:23;22.42;;;12.88;;
57842;SDS011;43673;51.058;3.734;2023-11-21T03:26:50;25.00;;;14.68;;
57842;SDS011;43673;51.058;3.734;2023-11-21T03:29:16;20.58;;;13.07;;
57842;SDS011;43673;51.058;3.734;2023-11-21T03:31:41;23.08;;;13.77;;
57842;SDS011;43673;51.058;3.734;2023-11-21T03:34:09;23.38;;;13.52;;
57842;SDS011;43673;51.058;3.734;2023-11-21T03:36:39;21.25;;;13.43;;
57842;SDS011;43673;51.058;3.734;2023-11-21T03:39:05;20.35;;;13.73;;
57842;SDS011;43673;51.058;3.734;2023-11-21T03:41:31;27.08;;;13.45;;
57842;SDS011;43673;51.058;3.734;2023-11-21T03:43:57;21.77;;;13.23;;
57842;SDS011;43673;51.058;3.734;2023-11-21T03:46:22;23.38;;;13.55;;
57842;SDS011;43673;51.058;3.734;2023-11-21T03:48:48;20.67;;;12.93;;
57842;SDS011;43673;51.058;3.734;2023-11-21T03:51:14;20.63;;;12.27;;
57842;SDS011;43673;51.058;3.734;2023-11-21T03:53:39;19.63;;;13.30;;
57842;SDS011;43673;51.058;3.734;2023-11-21T03:56:05;23.95;;;12.60;;
57842;SDS011;43673;51.058;3.734;2023-11-21T03:58:31;28.90;;;13.27;;
57842;SDS011;43673;51.058;3.734;2023-11-21T04:00:57;27.45;;;12.88;;
57842;SDS011;43673;51.058;3.734;2023-11-21T04:03:23;22.02;;;13.75;;
57842;SDS011;43673;51.058;3.734;2023-11-21T04:05:48;23.80;;;14.48;;
57842;SDS011;43673;51.058;3.734;2023-11-21T04:08:14;23.30;;;13.65;;
57842;SDS011;43673;51.058;3.734;2023-11-21T04:10:40;21.65;;;14.70;;
57842;SDS011;43673;51.058;3.734;2023-11-21T04:13:07;23.42;;;13.32;;
57842;SDS011;43673;51.058;3.734;2023-11-21T04:15:32;22.25;;;12.63;;
57842;SDS011;43673;51.058;3.734;2023-11-21T04:17:58;19.85;;;13.25;;
57842;SDS011;43673;51.058;3.734;2023-11-21T04:20:24;25.98;;;13.80;;
57842;SDS011;43673;51.058;3.734;2023-11-21T04:22:50;25.90;;;14.07;;
57842;SDS011;43673;51.058;3.734;2023-11-21T04:25:16;20.75;;;13.68;;
57842;SDS011;43673;51.058;3.734;2023-11-21T04:27:42;23.05;;;12.55;;
57842;SDS011;43673;51.058;3.734;2023-11-21T04:30:13;23.65;;;13.73;;
57842;SDS011;43673;51.058;3.734;2023-11-21T04:32:40;22.52;;;12.95;;
57842;SDS011;43673;51.058;3.734;2023-11-21T04:35:06;22.05;;;13.65;;
57842;SDS011;43673;51.058;3.734;2023-11-21T04:37:33;25.42;;;13.55;;
57842;SDS011;43673;51.058;3.734;2023-11-21T04:39:59;21.58;;;12.52;;
57842;SDS011;43673;51.058;3.734;2023-11-21T04:42:25;23.50;;;13.73;;
57842;SDS011;43673;51.058;3.734;2023-11-21T04:44:54;25.30;;;14.77;;
57842;SDS011;43673;51.058;3.734;2023-11-21T04:47:19;25.10;;;14.23;;
57842;SDS011;43673;51.058;3.734;2023-11-21T04:49:45;28.60;;;13.70;;
57842;SDS011;43673;51.058;3.734;2023-11-21T04:52:14;23.05;;;14.43;;
57842;SDS011;43673;51.058;3.734;2023-11-21T04:54:40;23.02;;;13.52;;
57842;SDS011;43673;51.058;3.734;2023-11-21T04:57:05;22.88;;;14.75;;
57842;SDS011;43673;51.058;3.734;2023-11-21T04:59:32;22.77;;;13.43;;
57842;SDS011;43673;51.058;3.734;2023-11-21T05:01:59;22.40;;;12.25;;
57842;SDS011;43673;51.058;3.734;2023-11-21T05:04:25;23.02;;;15.45;;
57842;SDS011;43673;51.058;3.734;2023-11-21T05:06:52;22.30;;;12.60;;
57842;SDS011;43673;51.058;3.734;2023-11-21T05:09:17;25.88;;;13.82;;
57842;SDS011;43673;51.058;3.734;2023-11-21T05:11:43;22.42;;;14.02;;
57842;SDS011;43673;51.058;3.734;2023-11-21T05:14:09;24.27;;;13.43;;
57842;SDS011;43673;51.058;3.734;2023-11-21T05:16:35;20.52;;;14.00;;
57842;SDS011;43673;51.058;3.734;2023-11-21T05:19:01;25.85;;;14.80;;
57842;SDS011;43673;51.058;3.734;2023-11-21T05:21:29;28.20;;;15.13;;
57842;SDS011;43673;51.058;3.734;2023-11-21T05:23:58;24.85;;;15.27;;
57842;SDS011;43673;51.058;3.734;2023-11-21T05:26:24;26.27;;;15.30;;
57842;SDS011;43673;51.058;3.734;2023-11-21T05:28:50;27.83;;;15.70;;
57842;SDS011;43673;51.058;3.734;2023-11-21T05:31:15;27.42;;;16.92;;
57842;SDS011;43673;51.058;3.734;2023-11-21T05:33:41;28.65;;;15.45;;
57842;SDS011;43673;51.058;3.734;2023-11-21T05:36:07;29.85;;;15.20;;
57842;SDS011;43673;51.058;3.734;2023-11-21T05:38:35;22.95;;;14.75;;
57842;SDS011;43673;51.058;3.734;2023-11-21T05:41:01;24.02;;;14.65;;
57842;SDS011;43673;51.058;3.734;2023-11-21T05:43:29;24.67;;;15.23;;
57842;SDS011;43673;51.058;3.734;2023-11-21T05:45:57;29.73;;;16.08;;
57842;SDS011;43673;51.058;3.734;2023-11-21T05:48:23;27.02;;;15.60;;
57842;SDS011;43673;51.058;3.734;2023-11-21T05:50:49;32.55;;;16.65;;
57842;SDS011;43673;51.058;3.734;2023-11-21T05:53:15;27.48;;;16.30;;
57842;SDS011;43673;51.058;3.734;2023-11-21T05:55:41;26.42;;;15.38;;
57842;SDS011;43673;51.058;3.734;2023-11-21T05:58:07;27.20;;;16.48;;
57842;SDS011;43673;51.058;3.734;2023-11-21T06:00:33;31.05;;;16.08;;
57842;SDS011;43673;51.058;3.734;2023-11-21T06:02:59;26.05;;;15.45;;
57842;SDS011;43673;51.058;3.734;2023-11-21T06:05:25;27.92;;;16.23;;
57842;SDS011;43673;51.058;3.734;2023-11-21T06:07:52;25.67;;;16.00;;
57842;SDS011;43673;51.058;3.734;2023-11-21T06:10:19;27.13;;;16.75;;
57842;SDS011;43673;51.058;3.734;2023-11-21T06:12:46;30.48;;;17.27;;
57842;SDS011;43673;51.058;3.734;2023-11-21T06:15:12;28.40;;;17.65;;
57842;SDS011;43673;51.058;3.734;2023-11-21T06:17:42;24.48;;;16.23;;
57842;SDS011;43673;51.058;3.734;2023-11-21T06:20:08;34.28;;;17.83;;
57842;SDS011;43673;51.058;3.734;2023-11-21T06:22:36;24.67;;;15.35;;
57842;SDS011;43673;51.058;3.734;2023-11-21T06:25:02;31.05;;;16.15;;
57842;SDS011;43673;51.058;3.734;2023-11-21T06:27:34;26.20;;;16.25;;
57842;SDS011;43673;51.058;3.734;2023-11-21T06:30:04;27.90;;;16.33;;
57842;SDS011;43673;51.058;3.734;2023-11-21T06:32:31;32.55;;;19.25;;
57842;SDS011;43673;51.058;3.734;2023-11-21T06:34:57;28.33;;;16.23;;
57842;SDS011;43673;51.058;3.734;2023-11-21T06:37:29;26.70;;;17.15;;
57842;SDS011;43673;51.058;3.734;2023-11-21T06:39:55;29.30;;;17.33;;
57842;SDS011;43673;51.058;3.734;2023-11-21T06:42:21;32.33;;;18.23;;
57842;SDS011;43673;51.058;3.734;2023-11-21T06:44:49;32.92;;;18.35;;
57842;SDS011;43673;51.058;3.734;2023-11-21T06:47:16;30.98;;;16.60;;
57842;SDS011;43673;51.058;3.734;2023-11-21T06:49:44;32.25;;;17.60;;
57842;SDS011;43673;51.058;3.734;2023-11-21T06:52:13;34.65;;;18.58;;
57842;SDS011;43673;51.058;3.734;2023-11-21T06:54:38;31.58;;;19.15;;
57842;SDS011;43673;51.058;3.734;2023-11-21T06:57:04;35.10;;;20.45;;
57842;SDS011;43673;51.058;3.734;2023-11-21T06:59:30;31.13;;;16.83;;
57842;SDS011;43673;51.058;3.734;2023-11-21T07:01:56;39.13;;;19.95;;
57842;SDS011;43673;51.058;3.734;2023-11-21T07:04:22;36.90;;;18.35;;
57842;SDS011;43673;51.058;3.734;2023-11-21T07:06:47;42.40;;;19.27;;
57842;SDS011;43673;51.058;3.734;2023-11-21T07:09:13;34.97;;;20.15;;
57842;SDS011;43673;51.058;3.734;2023-11-21T07:11:40;36.20;;;17.92;;
57842;SDS011;43673;51.058;3.734;2023-11-21T07:14:06;34.88;;;16.63;;
57842;SDS011;43673;51.058;3.734;2023-11-21T07:16:36;29.33;;;17.05;;
57842;SDS011;43673;51.058;3.734;2023-11-21T07:19:06;36.25;;;17.17;;
57842;SDS011;43673;51.058;3.734;2023-11-21T07:21:32;29.77;;;15.90;;
57842;SDS011;43673;51.058;3.734;2023-11-21T07:23:59;34.38;;;17.30;;
57842;SDS011;43673;51.058;3.734;2023-11-21T07:26:26;34.60;;;19.20;;
57842;SDS011;43673;51.058;3.734;2023-11-21T07:28:52;31.30;;;16.45;;
57842;SDS011;43673;51.058;3.734;2023-11-21T07:31:18;31.23;;;16.83;;
57842;SDS011;43673;51.058;3.734;2023-11-21T07:33:44;27.15;;;14.80;;
57842;SDS011;43673;51.058;3.734;2023-11-21T07:36:12;30.42;;;15.38;;
57842;SDS011;43673;51.058;3.734;2023-11-21T07:38:38;28.17;;;14.82;;
57842;SDS011;43673;51.058;3.734;2023-11-21T07:41:05;22.00;;;14.15;;
57842;SDS011;43673;51.058;3.734;2023-11-21T07:43:33;25.88;;;16.35;;
57842;SDS011;43673;51.058;3.734;2023-11-21T07:46:02;20.13;;;13.10;;
57842;SDS011;43673;51.058;3.734;2023-11-21T07:48:29;21.92;;;13.07;;
57842;SDS011;43673;51.058;3.734;2023-11-21T07:50:56;22.30;;;13.18;;
57842;SDS011;43673;51.058;3.734;2023-11-21T07:53:23;26.08;;;14.10;;
57842;SDS011;43673;51.058;3.734;2023-11-21T07:55:54;19.67;;;13.02;;
57842;SDS011;43673;51.058;3.734;2023-11-21T07:58:20;20.55;;;13.02;;
57842;SDS011;43673;51.058;3.734;2023-11-21T08:00:49;19.40;;;12.25;;
57842;SDS011;43673;51.058;3.734;2023-11-21T08:03:15;18.85;;;11.45;;
57842;SDS011;43673;51.058;3.734;2023-11-21T08:05:41;18.05;;;11.80;;
57842;SDS011;43673;51.058;3.734;2023-11-21T08:08:08;21.17;;;13.00;;
57842;SDS011;43673;51.058;3.734;2023-11-21T08:10:34;18.80;;;12.70;;
57842;SDS011;43673;51.058;3.734;2023-11-21T08:13:04;23.98;;;12.10;;
57842;SDS011;43673;51.058;3.734;2023-11-21T08:15:31;22.85;;;12.73;;
57842;SDS011;43673;51.058;3.734;2023-11-21T08:17:58;17.70;;;12.25;;
57842;SDS011;43673;51.058;3.734;2023-11-21T08:20:24;19.48;;;12.05;;
57842;SDS011;43673;51.058;3.734;2023-11-21T08:22:50;17.90;;;11.13;;
57842;SDS011;43673;51.058;3.734;2023-11-21T08:25:17;20.70;;;12.60;;
57842;SDS011;43673;51.058;3.734;2023-11-21T08:27:45;19.55;;;11.93;;
57842;SDS011;43673;51.058;3.734;2023-11-21T08:30:11;14.68;;;11.10;;
57842;SDS011;43673;51.058;3.734;2023-11-21T08:32:38;18.55;;;10.73;;
57842;SDS011;43673;51.058;3.734;2023-11-21T08:35:04;14.63;;;9.73;;
57842;SDS011;43673;51.058;3.734;2023-11-21T08:37:31;15.45;;;10.02;;
57842;SDS011;43673;51.058;3.734;2023-11-21T08:39:58;15.10;;;8.73;;
57842;SDS011;43673;51.058;3.734;2023-11-21T08:42:27;15.80;;;8.73;;
57842;SDS011;43673;51.058;3.734;2023-11-21T08:44:55;12.30;;;7.53;;
57842;SDS011;43673;51.058;3.734;2023-11-21T08:47:22;15.15;;;7.50;;
57842;SDS011;43673;51.058;3.734;2023-11-21T08:49:49;12.75;;;5.97;;
57842;SDS011;43673;51.058;3.734;2023-11-21T08:52:18;11.07;;;5.88;;
57842;SDS011;43673;51.058;3.734;2023-11-21T08:54:45;10.02;;;6.32;;
57842;SDS011;43673;51.058;3.734;2023-11-21T08:57:11;7.82;;;6.15;;
57842;SDS011;43673;51.058;3.734;2023-11-21T08:59:37;11.23;;;6.25;;
57842;SDS011;43673;51.058;3.734;2023-11-21T09:02:03;11.23;;;6.00;;
57842;SDS011;43673;51.058;3.734;2023-11-21T09:04:29;15.43;;;6.97;;
57842;SDS011;43673;51.058;3.734;2023-11-21T09:06:54;7.70;;;6.05;;
57842;SDS011;43673;51.058;3.734;2023-11-21T09:09:20;8.48;;;6.70;;
57842;SDS011;43673;51.058;3.734;2023-11-21T09:11:46;12.48;;;6.38;;
57842;SDS011;43673;51.058;3.734;2023-11-21T09:14:14;11.85;;;7.05;;
57842;SDS011;43673;51.058;3.734;2023-11-21T09:16:41;9.48;;;6.25;;
57842;SDS011;43673;51.058;3.734;2023-11-21T09:19:08;10.98;;;6.25;;
57842;SDS011;43673;51.058;3.734;2023-11-21T09:21:34;10.65;;;6.47;;
57842;SDS011;43673;51.058;3.734;2023-11-21T09:23:59;7.78;;;5.47;;
57842;SDS011;43673;51.058;3.734;2023-11-21T09:26:25;8.70;;;5.28;;
57842;SDS011;43673;51.058;3.734;2023-11-21T09:28:51;7.63;;;5.63;;
57842;SDS011;43673;51.058;3.734;2023-11-21T09:31:17;9.50;;;5.25;;
57842;SDS011;43673;51.058;3.734;2023-11-21T09:33:47;7.57;;;4.63;;
57842;SDS011;43673;51.058;3.734;2023-11-21T09:36:13;12.45;;;5.22;;
57842;SDS011;43673;51.058;3.734;2023-11-21T09:38:42;6.93;;;5.32;;
57842;SDS011;43673;51.058;3.734;2023-11-21T09:41:21;12.38;;;8.57;;
57842;SDS011;43673;51.058;3.734;2023-11-21T09:43:52;10.30;;;6.22;;
57842;SDS011;43673;51.058;3.734;2023-11-21T09:46:24;7.63;;;5.28;;
57842;SDS011;43673;51.058;3.734;2023-11-21T09:48:53;8.75;;;4.70;;
57842;SDS011;43673;51.058;3.734;2023-11-21T09:51:21;11.55;;;4.95;;
57842;SDS011;43673;51.058;3.734;2023-11-21T09:53:52;6.65;;;4.07;;
57842;SDS011;43673;51.058;3.734;2023-11-21T09:56:18;6.60;;;4.50;;
57842;SDS011;43673;51.058;3.734;2023-11-21T09:58:50;7.38;;;3.20;;
57842;SDS011;43673;51.058;3.734;2023-11-21T10:01:21;8.60;;;3.65;;
57842;SDS011;43673;51.058;3.734;2023-11-21T10:03:48;9.38;;;3.00;;
57842;SDS011;43673;51.058;3.734;2023-11-21T10:06:14;3.78;;;2.88;;
57842;SDS011;43673;51.058;3.734;2023-11-21T10:08:43;6.45;;;3.47;;
57842;SDS011;43673;51.058;3.734;2023-11-21T10:11:09;4.63;;;3.10;;
57842;SDS011;43673;51.058;3.734;2023-11-21T10:13:37;6.72;;;3.58;;
57842;SDS011;43673;51.058;3.734;2023-11-21T10:16:07;6.25;;;2.95;;
57842;SDS011;43673;51.058;3.734;2023-11-21T10:18:37;6.25;;;3.42;;
57842;SDS011;43673;51.058;3.734;2023-11-21T10:21:05;7.15;;;3.60;;
57842;SDS011;43673;51.058;3.734;2023-11-21T10:23:32;4.97;;;3.53;;
57842;SDS011;43673;51.058;3.734;2023-11-21T10:25:58;8.75;;;4.13;;
57842;SDS011;43673;51.058;3.734;2023-11-21T10:28:25;8.30;;;5.07;;
57842;SDS011;43673;51.058;3.734;2023-11-21T10:30:50;11.63;;;5.30;;
57842;SDS011;43673;51.058;3.734;2023-11-21T10:33:17;6.05;;;3.97;;
57842;SDS011;43673;51.058;3.734;2023-11-21T10:35:52;8.20;;;4.47;;
57842;SDS011;43673;51.058;3.734;2023-11-21T10:38:20;10.27;;;4.63;;
57842;SDS011;43673;51.058;3.734;2023-11-21T10:40:49;8.13;;;4.13;;
57842;SDS011;43673;51.058;3.734;2023-11-21T10:43:15;6.22;;;3.33;;
57842;SDS011;43673;51.058;3.734;2023-11-21T10:45:42;6.35;;;3.47;;
57842;SDS011;43673;51.058;3.734;2023-11-21T10:48:09;6.05;;;3.70;;
57842;SDS011;43673;51.058;3.734;2023-11-21T10:50:40;6.32;;;4.45;;
57842;SDS011;43673;51.058;3.734;2023-11-21T10:53:06;6.85;;;3.72;;
57842;SDS011;43673;51.058;3.734;2023-11-21T10:55:33;8.10;;;4.90;;
57842;SDS011;43673;51.058;3.734;2023-11-21T10:58:01;7.60;;;3.25;;
57842;SDS011;43673;51.058;3.734;2023-11-21T11:00:30;10.23;;;4.07;;
57842;SDS011;43673;51.058;3.734;2023-11-21T11:02:57;7.75;;;4.50;;
57842;SDS011;43673;51.058;3.734;2023-11-21T11:05:24;7.63;;;3.85;;
57842;SDS011;43673;51.058;3.734;2023-11-21T11:10:33;12.23;;;4.45;;
57842;SDS011;43673;51.058;3.734;2023-11-21T11:13:00;7.63;;;3.73;;
57842;SDS011;43673;51.058;3.734;2023-11-21T11:15:28;9.50;;;4.07;;
57842;SDS011;43673;51.058;3.734;2023-11-21T11:17:55;5.53;;;4.25;;
57842;SDS011;43673;51.058;3.734;2023-11-21T11:20:22;11.55;;;4.15;;
57842;SDS011;43673;51.058;3.734;2023-11-21T11:23:13;10.38;;;4.57;;
57842;SDS011;43673;51.058;3.734;2023-11-21T11:42:07;11.05;;;3.03;;
57842;SDS011;43673;51.058;3.734;2023-11-21T11:47:21;12.40;;;4.13;;
57842;SDS011;43673;51.058;3.734;2023-11-21T11:52:45;12.88;;;4.38;;
57842;SDS011;43673;51.058;3.734;2023-11-21T11:55:14;7.60;;;3.55;;
57842;SDS011;43673;51.058;3.734;2023-11-21T11:57:44;9.90;;;3.60;;
57842;SDS011;43673;51.058;3.734;2023-11-21T12:02:53;9.82;;;3.63;;
57842;SDS011;43673;51.058;3.734;2023-11-21T12:05:22;10.10;;;2.85;;
57842;SDS011;43673;51.058;3.734;2023-11-21T12:07:52;4.88;;;2.95;;
57842;SDS011;43673;51.058;3.734;2023-11-21T12:10:19;9.93;;;4.00;;
57842;SDS011;43673;51.058;3.734;2023-11-21T12:12:48;4.93;;;2.97;;
57842;SDS011;43673;51.058;3.734;2023-11-21T12:15:16;11.88;;;3.33;;
57842;SDS011;43673;51.058;3.734;2023-11-21T12:17:42;7.75;;;3.88;;
57842;SDS011;43673;51.058;3.734;2023-11-21T12:20:09;6.10;;;3.47;;
57842;SDS011;43673;51.058;3.734;2023-11-21T12:22:46;4.82;;;3.03;;
57842;SDS011;43673;51.058;3.734;2023-11-21T12:25:16;7.38;;;3.13;;
57842;SDS011;43673;51.058;3.734;2023-11-21T12:27:46;6.68;;;3.78;;
57842;SDS011;43673;51.058;3.734;2023-11-21T12:30:14;8.18;;;3.20;;
57842;SDS011;43673;51.058;3.734;2023-11-21T12:32:47;5.53;;;2.85;;
57842;SDS011;43673;51.058;3.734;2023-11-21T12:35:16;11.05;;;3.38;;
57842;SDS011;43673;51.058;3.734;2023-11-21T12:37:44;11.60;;;3.70;;
57842;SDS011;43673;51.058;3.734;2023-11-21T12:40:11;8.88;;;4.30;;
57842;SDS011;43673;51.058;3.734;2023-11-21T12:42:43;13.15;;;5.00;;
57842;SDS011;43673;51.058;3.734;2023-11-21T12:47:56;11.60;;;5.45;;
57842;SDS011;43673;51.058;3.734;2023-11-21T12:50:28;6.35;;;4.40;;
57842;SDS011;43673;51.058;3.734;2023-11-21T12:53:03;8.82;;;4.22;;
57842;SDS011;43673;51.058;3.734;2023-11-21T12:55:31;9.05;;;4.55;;
57842;SDS011;43673;51.058;3.734;2023-11-21T12:58:02;8.20;;;5.05;;
57842;SDS011;43673;51.058;3.734;2023-11-21T13:00:40;7.55;;;5.13;;
57842;SDS011;43673;51.058;3.734;2023-11-21T13:03:13;10.25;;;5.70;;
57842;SDS011;43673;51.058;3.734;2023-11-21T13:05:50;15.82;;;6.72;;
57842;SDS011;43673;51.058;3.734;2023-11-21T13:08:20;10.07;;;6.13;;
57842;SDS011;43673;51.058;3.734;2023-11-21T13:10:51;8.73;;;5.45;;
57842;SDS011;43673;51.058;3.734;2023-11-21T13:13:19;6.65;;;5.57;;
57842;SDS011;43673;51.058;3.734;2023-11-21T13:15:49;8.68;;;6.03;;
57842;SDS011;43673;51.058;3.734;2023-11-21T13:18:31;6.72;;;5.40;;
57842;SDS011;43673;51.058;3.734;2023-11-21T13:20:58;8.95;;;6.20;;
57842;SDS011;43673;51.058;3.734;2023-11-21T13:23:25;9.13;;;6.18;;
57842;SDS011;43673;51.058;3.734;2023-11-21T13:25:52;8.32;;;6.43;;
57842;SDS011;43673;51.058;3.734;2023-11-21T13:28:19;9.57;;;5.90;;
57842;SDS011;43673;51.058;3.734;2023-11-21T13:30:46;10.68;;;6.20;;
57842;SDS011;43673;51.058;3.734;2023-11-21T13:33:12;8.48;;;5.25;;
57842;SDS011;43673;51.058;3.734;2023-11-21T13:35:43;10.85;;;4.78;;
57842;SDS011;43673;51.058;3.734;2023-11-21T13:38:14;7.88;;;3.65;;
57842;SDS011;43673;51.058;3.734;2023-11-21T13:40:50;12.68;;;4.47;;
57842;SDS011;43673;51.058;3.734;2023-11-21T13:43:20;9.73;;;3.08;;
57842;SDS011;43673;51.058;3.734;2023-11-21T13:45:49;9.80;;;3.78;;
57842;SDS011;43673;51.058;3.734;2023-11-21T13:48:20;6.28;;;3.60;;
57842;SDS011;43673;51.058;3.734;2023-11-21T13:50:53;6.78;;;4.25;;
57842;SDS011;43673;51.058;3.734;2023-11-21T13:53:26;5.57;;;3.83;;
57842;SDS011;43673;51.058;3.734;2023-11-21T13:55:55;4.35;;;3.83;;
57842;SDS011;43673;51.058;3.734;2023-11-21T14:01:10;9.50;;;5.03;;
57842;SDS011;43673;51.058;3.734;2023-11-21T14:04:03;10.70;;;6.28;;
57842;SDS011;43673;51.058;3.734;2023-11-21T14:06:48;12.97;;;7.00;;
57842;SDS011;43673;51.058;3.734;2023-11-21T14:09:20;7.75;;;6.72;;
57842;SDS011;43673;51.058;3.734;2023-11-21T14:11:54;7.13;;;5.90;;
57842;SDS011;43673;51.058;3.734;2023-11-21T14:14:24;8.32;;;5.80;;
57842;SDS011;43673;51.058;3.734;2023-11-21T14:16:51;14.40;;;6.57;;
57842;SDS011;43673;51.058;3.734;2023-11-21T14:19:17;9.18;;;6.28;;
57842;SDS011;43673;51.058;3.734;2023-11-21T14:21:44;8.88;;;6.55;;
57842;SDS011;43673;51.058;3.734;2023-11-21T14:24:10;6.75;;;5.43;;
57842;SDS011;43673;51.058;3.734;2023-11-21T14:26:43;10.38;;;7.28;;
57842;SDS011;43673;51.058;3.734;2023-11-21T14:29:13;9.95;;;6.85;;
57842;SDS011;43673;51.058;3.734;2023-11-21T14:31:42;7.60;;;6.88;;
57842;SDS011;43673;51.058;3.734;2023-11-21T14:34:08;11.38;;;7.15;;
57842;SDS011;43673;51.058;3.734;2023-11-21T14:36:37;15.25;;;9.98;;
57842;SDS011;43673;51.058;3.734;2023-11-21T14:39:04;13.40;;;7.90;;
57842;SDS011;43673;51.058;3.734;2023-11-21T14:41:34;12.30;;;7.97;;
57842;SDS011;43673;51.058;3.734;2023-11-21T14:44:04;10.80;;;7.70;;
57842;SDS011;43673;51.058;3.734;2023-11-21T14:46:34;12.05;;;7.88;;
57842;SDS011;43673;51.058;3.734;2023-11-21T14:49:01;10.32;;;6.03;;
57842;SDS011;43673;51.058;3.734;2023-11-21T14:51:44;8.13;;;6.50;;
57842;SDS011;43673;51.058;3.734;2023-11-21T14:54:32;9.70;;;7.95;;
57842;SDS011;43673;51.058;3.734;2023-11-21T14:57:11;10.50;;;7.50;;
57842;SDS011;43673;51.058;3.734;2023-11-21T14:59:44;9.65;;;6.80;;
57842;SDS011;43673;51.058;3.734;2023-11-21T15:02:16;9.18;;;7.57;;
57842;SDS011;43673;51.058;3.734;2023-11-21T15:04:47;8.07;;;7.18;;
57842;SDS011;43673;51.058;3.734;2023-11-21T15:07:16;11.13;;;8.75;;